KRHV 230547Z 00000KT 10SM BKN110 17/14 A3012 RMK LAST